createdAt,value
2017-06-26T00:11:33.094Z,3
2017-06-26T00:51:33.133Z,3
2017-06-26T01:11:33.117Z,5
2017-06-26T01:51:33.102Z,4
2017-06-26T02:21:33.156Z,6
2017-06-26T02:31:49.981Z,5
2017-06-26T02:51:33.444Z,5
2017-06-26T03:11:33.126Z,8
2017-06-26T03:52:02.434Z,8
2017-06-26T04:12:21.289Z,6
2017-06-26T04:51:33.214Z,5
2017-06-26T05:11:33.184Z,4
2017-06-26T05:51:33.141Z,5
2017-06-26T06:11:33.147Z,5
2017-06-26T06:51:33.193Z,7
2017-06-26T07:11:33.143Z,7
2017-06-26T07:21:33.389Z,9
2017-06-26T07:31:33.191Z,7
2017-06-26T07:41:33.267Z,7
2017-06-26T07:51:33.236Z,5
2017-06-26T08:01:33.164Z,5
2017-06-26T08:11:33.160Z,4
2017-06-26T08:21:33.490Z,3
2017-06-26T08:31:33.163Z,3
2017-06-26T08:41:33.164Z,2
2017-06-26T08:51:33.163Z,2
2017-06-26T09:01:33.178Z,2
2017-06-26T09:11:33.193Z,2
2017-06-26T09:21:33.535Z,2
2017-06-26T09:31:33.515Z,2
2017-06-26T09:41:33.313Z,1
2017-06-26T09:51:33.196Z,2
2017-06-26T10:01:33.311Z,2
2017-06-26T10:11:33.270Z,1
2017-06-26T10:21:33.289Z,1
2017-06-26T10:31:33.797Z,3
2017-06-26T10:41:33.530Z,2
2017-06-26T10:51:33.317Z,2
2017-06-26T11:01:34.710Z,2
2017-06-26T11:11:33.878Z,2
2017-06-26T11:21:43.309Z,4
2017-06-26T11:31:33.356Z,3
2017-06-26T11:41:33.281Z,2
2017-06-26T11:51:33.319Z,2
2017-06-26T12:01:33.272Z,2
2017-06-26T12:11:33.653Z,2
2017-06-26T12:21:33.291Z,3
2017-06-26T12:31:33.263Z,2
2017-06-26T12:41:33.309Z,3
2017-06-26T12:51:33.679Z,1
2017-06-26T13:01:34.693Z,2
2017-06-26T13:11:33.435Z,2
2017-06-26T13:21:33.311Z,2
2017-06-26T13:31:34.579Z,4
2017-06-26T13:41:33.315Z,2
2017-06-26T13:51:33.442Z,1
2017-06-26T14:01:33.387Z,2
2017-06-26T14:11:33.681Z,2
2017-06-26T14:21:33.377Z,1
2017-06-26T14:31:33.330Z,1
2017-06-26T14:41:33.360Z,2
2017-06-26T14:51:33.338Z,1
2017-06-26T15:01:34.016Z,1
2017-06-26T15:11:36.047Z,1
2017-06-26T15:21:38.768Z,2
2017-06-26T15:31:33.298Z,2
2017-06-26T15:41:33.315Z,1
2017-06-26T15:51:33.333Z,1
2017-06-26T16:01:34.996Z,1
2017-06-26T16:11:33.312Z,2
2017-06-26T16:21:33.496Z,2
2017-06-26T16:31:33.355Z,2
2017-06-26T16:41:33.684Z,2
2017-06-26T16:51:33.290Z,2
2017-06-26T17:01:33.307Z,2
2017-06-26T17:11:33.279Z,1
2017-06-26T17:21:33.281Z,2
2017-06-26T17:31:33.346Z,1
2017-06-26T17:41:33.330Z,1
2017-06-26T17:51:33.285Z,1
2017-06-26T18:01:33.352Z,1
2017-06-26T18:11:40.338Z,1
2017-06-26T18:21:38.399Z,1
2017-06-26T18:31:33.348Z,1
2017-06-26T18:41:59.165Z,1
2017-06-26T18:51:57.642Z,1
2017-06-26T19:01:46.444Z,1
2017-06-26T19:11:52.625Z,1
2017-06-26T19:21:34.451Z,2
2017-06-26T19:31:37.345Z,1
2017-06-26T19:41:33.594Z,2
2017-06-26T19:51:34.392Z,2
2017-06-26T20:01:34.638Z,2
2017-06-26T20:11:37.312Z,2
2017-06-26T20:21:43.236Z,2
2017-06-26T20:31:37.776Z,2
2017-06-26T20:41:33.301Z,2
2017-06-26T20:51:35.183Z,3
2017-06-26T21:01:33.433Z,2
2017-06-26T21:11:35.266Z,2
2017-06-26T21:21:33.476Z,2
2017-06-26T21:31:33.684Z,2
2017-06-26T21:41:33.401Z,3
2017-06-26T21:51:33.342Z,2
2017-06-26T22:01:33.556Z,3
2017-06-26T22:11:33.397Z,2
2017-06-26T22:21:43.119Z,2
2017-06-26T22:31:33.359Z,3
2017-06-26T22:41:33.423Z,2
2017-06-26T22:51:33.508Z,2
2017-06-26T23:01:33.355Z,2
2017-06-26T23:11:33.322Z,2
2017-06-26T23:21:33.399Z,2
2017-06-26T23:31:33.415Z,2
2017-06-26T23:41:33.585Z,2
2017-06-26T23:51:33.389Z,2
